sensor_id;sensor_type;location;lat;lon;timestamp;temperature;humidity
63960;DHT22;50136;51.374;0.096;2023-05-23T00:08:57;11.70;99.90
63960;DHT22;50136;51.374;0.096;2023-05-23T00:18:59;11.70;99.90
63960;DHT22;50136;51.374;0.096;2023-05-23T00:29:02;11.70;99.90
63960;DHT22;50136;51.374;0.096;2023-05-23T00:39:04;11.70;99.90
63960;DHT22;50136;51.374;0.096;2023-05-23T00:49:08;11.50;99.90
63960;DHT22;50136;51.374;0.096;2023-05-23T00:59:11;11.50;99.90
63960;DHT22;50136;51.374;0.096;2023-05-23T01:09:14;11.40;99.90
63960;DHT22;50136;51.374;0.096;2023-05-23T01:19:33;11.20;99.90
63960;DHT22;50136;51.374;0.096;2023-05-23T01:29:42;11.10;99.90
63960;DHT22;50136;51.374;0.096;2023-05-23T01:39:45;11.00;99.90
63960;DHT22;50136;51.374;0.096;2023-05-23T01:49:50;10.80;99.90
63960;DHT22;50136;51.374;0.096;2023-05-23T01:59:53;10.70;99.90
63960;DHT22;50136;51.374;0.096;2023-05-23T02:09:56;10.60;99.90
63960;DHT22;50136;51.374;0.096;2023-05-23T02:19:58;10.50;99.90
63960;DHT22;50136;51.374;0.096;2023-05-23T02:30:02;10.50;99.90
63960;DHT22;50136;51.374;0.096;2023-05-23T02:40:05;10.50;99.90
63960;DHT22;50136;51.374;0.096;2023-05-23T02:50:10;10.20;99.90
63960;DHT22;50136;51.374;0.096;2023-05-23T03:00:13;10.30;99.90
63960;DHT22;50136;51.374;0.096;2023-05-23T03:10:16;10.20;99.90
63960;DHT22;50136;51.374;0.096;2023-05-23T03:20:18;10.30;99.90
63960;DHT22;50136;51.374;0.096;2023-05-23T03:30:22;10.40;99.90
63960;DHT22;50136;51.374;0.096;2023-05-23T03:40:24;10.60;99.90
63960;DHT22;50136;51.374;0.096;2023-05-23T03:50:27;10.70;99.90
63960;DHT22;50136;51.374;0.096;2023-05-23T04:00:29;10.70;99.90
63960;DHT22;50136;51.374;0.096;2023-05-23T04:10:33;10.70;99.90
63960;DHT22;50136;51.374;0.096;2023-05-23T04:20:35;10.70;99.90
63960;DHT22;50136;51.374;0.096;2023-05-23T04:30:39;10.70;99.90
63960;DHT22;50136;51.374;0.096;2023-05-23T04:40:41;10.70;99.90
63960;DHT22;50136;51.374;0.096;2023-05-23T04:50:44;10.70;99.90
63960;DHT22;50136;51.374;0.096;2023-05-23T05:00:46;10.70;99.90
63960;DHT22;50136;51.374;0.096;2023-05-23T05:10:50;10.70;99.90
63960;DHT22;50136;51.374;0.096;2023-05-23T05:20:52;10.70;99.90
63960;DHT22;50136;51.374;0.096;2023-05-23T05:30:55;11.00;99.90
63960;DHT22;50136;51.374;0.096;2023-05-23T05:40:57;11.10;99.90
63960;DHT22;50136;51.374;0.096;2023-05-23T05:51:01;11.30;99.90
63960;DHT22;50136;51.374;0.096;2023-05-23T06:01:03;11.40;99.90
63960;DHT22;50136;51.374;0.096;2023-05-23T06:11:06;11.60;99.90
63960;DHT22;50136;51.374;0.096;2023-05-23T06:21:08;11.60;99.90
63960;DHT22;50136;51.374;0.096;2023-05-23T06:31:12;11.70;99.90
63960;DHT22;50136;51.374;0.096;2023-05-23T06:41:14;11.90;99.90
63960;DHT22;50136;51.374;0.096;2023-05-23T06:51:17;12.30;99.90
63960;DHT22;50136;51.374;0.096;2023-05-23T07:01:19;12.50;99.90
63960;DHT22;50136;51.374;0.096;2023-05-23T07:11:23;12.70;99.90
63960;DHT22;50136;51.374;0.096;2023-05-23T07:21:25;12.90;99.90
63960;DHT22;50136;51.374;0.096;2023-05-23T07:31:28;13.70;99.90
63960;DHT22;50136;51.374;0.096;2023-05-23T07:41:30;14.40;99.90
63960;DHT22;50136;51.374;0.096;2023-05-23T07:51:34;14.50;99.90
63960;DHT22;50136;51.374;0.096;2023-05-23T08:01:36;15.50;99.90
63960;DHT22;50136;51.374;0.096;2023-05-23T08:11:39;16.40;99.90
63960;DHT22;50136;51.374;0.096;2023-05-23T08:21:41;16.40;99.90
63960;DHT22;50136;51.374;0.096;2023-05-23T08:31:44;17.70;98.90
63960;DHT22;50136;51.374;0.096;2023-05-23T08:41:47;18.30;96.80
63960;DHT22;50136;51.374;0.096;2023-05-23T08:51:51;18.50;96.60
63960;DHT22;50136;51.374;0.096;2023-05-23T09:01:55;18.00;95.60
63960;DHT22;50136;51.374;0.096;2023-05-23T09:11:58;17.60;96.30
63960;DHT22;50136;51.374;0.096;2023-05-23T09:22:01;17.80;95.40
63960;DHT22;50136;51.374;0.096;2023-05-23T09:32:11;17.40;95.10
63960;DHT22;50136;51.374;0.096;2023-05-23T09:42:19;17.10;94.50
63960;DHT22;50136;51.374;0.096;2023-05-23T09:52:22;16.80;94.70
63960;DHT22;50136;51.374;0.096;2023-05-23T10:12:54;17.20;95.30
63960;DHT22;50136;51.374;0.096;2023-05-23T10:22:59;18.70;94.30
63960;DHT22;50136;51.374;0.096;2023-05-23T10:33:03;20.50;92.30
63960;DHT22;50136;51.374;0.096;2023-05-23T10:43:12;19.70;91.90
63960;DHT22;50136;51.374;0.096;2023-05-23T10:53:18;20.40;91.40
63960;DHT22;50136;51.374;0.096;2023-05-23T11:03:30;20.20;90.50
63960;DHT22;50136;51.374;0.096;2023-05-23T11:13:57;21.20;90.30
63960;DHT22;50136;51.374;0.096;2023-05-23T11:23:59;21.60;89.00
63960;DHT22;50136;51.374;0.096;2023-05-23T11:34:04;21.40;90.80
63960;DHT22;50136;51.374;0.096;2023-05-23T11:44:10;21.70;88.90
63960;DHT22;50136;51.374;0.096;2023-05-23T11:54:14;21.90;86.50
63960;DHT22;50136;51.374;0.096;2023-05-23T12:04:16;21.80;89.40
63960;DHT22;50136;51.374;0.096;2023-05-23T12:14:19;21.70;89.10
63960;DHT22;50136;51.374;0.096;2023-05-23T12:24:22;21.70;89.40
63960;DHT22;50136;51.374;0.096;2023-05-23T12:34:25;21.00;90.30
63960;DHT22;50136;51.374;0.096;2023-05-23T12:44:29;21.00;90.10
63960;DHT22;50136;51.374;0.096;2023-05-23T12:54:32;20.20;90.50
63960;DHT22;50136;51.374;0.096;2023-05-23T13:04:34;21.20;90.30
63960;DHT22;50136;51.374;0.096;2023-05-23T13:14:38;21.60;89.50
63960;DHT22;50136;51.374;0.096;2023-05-23T13:24:40;21.70;88.90
63960;DHT22;50136;51.374;0.096;2023-05-23T13:34:43;21.70;89.00
63960;DHT22;50136;51.374;0.096;2023-05-23T13:44:45;21.50;89.50
63960;DHT22;50136;51.374;0.096;2023-05-23T13:54:49;21.30;89.50
63960;DHT22;50136;51.374;0.096;2023-05-23T14:04:51;21.50;88.50
63960;DHT22;50136;51.374;0.096;2023-05-23T14:14:54;20.80;90.20
63960;DHT22;50136;51.374;0.096;2023-05-23T14:24:56;19.60;91.60
63960;DHT22;50136;51.374;0.096;2023-05-23T14:35:00;19.40;92.10
63960;DHT22;50136;51.374;0.096;2023-05-23T14:45:02;19.80;92.10
63960;DHT22;50136;51.374;0.096;2023-05-23T14:55:07;19.80;91.90
63960;DHT22;50136;51.374;0.096;2023-05-23T15:05:09;19.10;92.30
63960;DHT22;50136;51.374;0.096;2023-05-23T15:15:12;19.80;92.20
63960;DHT22;50136;51.374;0.096;2023-05-23T15:25:14;19.30;92.40
63960;DHT22;50136;51.374;0.096;2023-05-23T15:35:18;19.70;91.80
63960;DHT22;50136;51.374;0.096;2023-05-23T15:45:20;20.00;91.10
63960;DHT22;50136;51.374;0.096;2023-05-23T15:55:24;20.00;91.40
63960;DHT22;50136;51.374;0.096;2023-05-23T16:05:26;21.00;90.90
63960;DHT22;50136;51.374;0.096;2023-05-23T16:15:29;19.70;91.80
63960;DHT22;50136;51.374;0.096;2023-05-23T16:25:31;19.00;93.00
63960;DHT22;50136;51.374;0.096;2023-05-23T16:35:35;18.10;95.00
63960;DHT22;50136;51.374;0.096;2023-05-23T16:45:37;18.70;94.30
63960;DHT22;50136;51.374;0.096;2023-05-23T16:55:44;18.00;95.40
63960;DHT22;50136;51.374;0.096;2023-05-23T17:05:46;17.90;95.40
63960;DHT22;50136;51.374;0.096;2023-05-23T17:15:49;17.90;95.30
63960;DHT22;50136;51.374;0.096;2023-05-23T17:25:51;18.30;95.10
63960;DHT22;50136;51.374;0.096;2023-05-23T17:36:25;18.20;95.40
63960;DHT22;50136;51.374;0.096;2023-05-23T17:46:27;17.70;95.80
63960;DHT22;50136;51.374;0.096;2023-05-23T17:56:30;17.30;96.50
63960;DHT22;50136;51.374;0.096;2023-05-23T18:06:32;17.10;96.60
63960;DHT22;50136;51.374;0.096;2023-05-23T18:16:35;16.70;97.20
63960;DHT22;50136;51.374;0.096;2023-05-23T18:26:37;16.60;97.60
63960;DHT22;50136;51.374;0.096;2023-05-23T18:36:41;16.30;98.20
63960;DHT22;50136;51.374;0.096;2023-05-23T18:46:43;16.00;98.60
63960;DHT22;50136;51.374;0.096;2023-05-23T18:56:46;15.90;98.40
63960;DHT22;50136;51.374;0.096;2023-05-23T19:06:48;15.60;99.30
63960;DHT22;50136;51.374;0.096;2023-05-23T19:16:53;15.20;99.10
63960;DHT22;50136;51.374;0.096;2023-05-23T19:26:55;14.90;99.80
63960;DHT22;50136;51.374;0.096;2023-05-23T19:36:59;14.80;99.90
63960;DHT22;50136;51.374;0.096;2023-05-23T19:47:01;14.60;99.90
63960;DHT22;50136;51.374;0.096;2023-05-23T19:57:04;14.50;99.90
63960;DHT22;50136;51.374;0.096;2023-05-23T20:07:06;14.20;99.90
63960;DHT22;50136;51.374;0.096;2023-05-23T20:17:10;14.00;99.90
63960;DHT22;50136;51.374;0.096;2023-05-23T20:27:12;13.80;99.90
63960;DHT22;50136;51.374;0.096;2023-05-23T20:37:15;13.60;99.90
63960;DHT22;50136;51.374;0.096;2023-05-23T20:47:22;13.60;99.90
63960;DHT22;50136;51.374;0.096;2023-05-23T20:57:25;13.30;99.90
63960;DHT22;50136;51.374;0.096;2023-05-23T21:07:27;13.20;99.90
63960;DHT22;50136;51.374;0.096;2023-05-23T21:17:31;12.90;99.90
63960;DHT22;50136;51.374;0.096;2023-05-23T21:27:33;12.80;99.90
63960;DHT22;50136;51.374;0.096;2023-05-23T21:37:36;12.60;99.90
63960;DHT22;50136;51.374;0.096;2023-05-23T21:47:38;12.40;99.90
63960;DHT22;50136;51.374;0.096;2023-05-23T21:57:42;12.30;99.90
63960;DHT22;50136;51.374;0.096;2023-05-23T22:07:44;12.10;99.90
63960;DHT22;50136;51.374;0.096;2023-05-23T22:17:47;12.00;99.90
63960;DHT22;50136;51.374;0.096;2023-05-23T22:27:49;11.70;99.90
63960;DHT22;50136;51.374;0.096;2023-05-23T22:37:53;11.60;99.90
63960;DHT22;50136;51.374;0.096;2023-05-23T22:47:55;11.40;99.90
63960;DHT22;50136;51.374;0.096;2023-05-23T22:57:58;11.10;99.90
63960;DHT22;50136;51.374;0.096;2023-05-23T23:08:00;11.00;99.90
63960;DHT22;50136;51.374;0.096;2023-05-23T23:18:04;10.90;99.90
63960;DHT22;50136;51.374;0.096;2023-05-23T23:28:06;10.70;99.90
63960;DHT22;50136;51.374;0.096;2023-05-23T23:38:10;10.60;99.90
63960;DHT22;50136;51.374;0.096;2023-05-23T23:48:12;10.50;99.90
63960;DHT22;50136;51.374;0.096;2023-05-23T23:58:16;10.50;99.90
